DW5978 Whyalla SA AU current weather conditions

sailwx.info

Wind from 063

Air temperature 9.4° C
Dewpoint 5.0° C

Last reported at 2014-Aug-21 14:53 UTC.
Time now 2014-Aug-21 16:04 UTC

Location: S 33°01' E 137°32'.
View on Google Maps.

See reports from other nearby stations

  
Tides and Currents Weather Stations Pressure Air Temp Water Temp Dewpoint Dewpoint Depression Visibility Wind Speed Wind Dir Waves Ship Positions
date/time (UTC)wind fromknots sea level pressurealtimeterstation pressurevisibilityair tempwater tempwave heightnotes
2014-Aug-21 14:53 063 9.4
2014-Aug-21 14:38 277 10.0
2014-Aug-21 14:23 277 12.2
2014-Aug-21 14:08 033 1 gusting 5 13.9
2014-Aug-21 13:53 043 2 gusting 5 14.4
2014-Aug-21 13:38 040 2 gusting 5 13.9
2014-Aug-21 13:23 040 2 gusting 5 13.3
2014-Aug-21 13:08 044 2 gusting 3 12.8
2014-Aug-21 12:53 025 3 gusting 4 12.8
2014-Aug-21 12:38 040 1 gusting 5 12.8
2014-Aug-21 12:23 047 2 gusting 4 12.2
2014-Aug-21 12:08 048 3 gusting 4 12.2
2014-Aug-21 11:53 056 3 gusting 4 12.8
2014-Aug-21 11:38 040 3 gusting 4 12.8
2014-Aug-21 11:23 046 3 gusting 4 13.3
2014-Aug-21 11:08 036 3 gusting 4 12.2
2014-Aug-21 10:53 045 2 gusting 2 12.8
2014-Aug-21 10:38 047 1 gusting 3 13.3
2014-Aug-21 10:23 043 1 gusting 2 13.3
2014-Aug-21 10:08 058 1 gusting 3 13.9
2014-Aug-21 09:53 064 1 gusting 2 13.9
2014-Aug-21 09:38 064 2 gusting 5 13.9
2014-Aug-21 09:23 064 2 gusting 5 13.9
2014-Aug-21 09:07 079 1 gusting 2 13.9
2014-Aug-21 08:52 067 0 gusting 2 13.9
2014-Aug-21 08:37 070 1 gusting 2 15.0
2014-Aug-21 08:22 079 1 gusting 3 15.6
2014-Aug-21 08:07 085 2 gusting 5 16.1
2014-Aug-21 07:52 103 3 gusting 5 16.1
2014-Aug-21 07:37 101 3 gusting 6 16.7
2014-Aug-21 07:22 105 3 gusting 7 16.7
2014-Aug-21 07:07 103 2 gusting 6 17.2
2014-Aug-21 06:52 104 2 gusting 6 17.2
2014-Aug-21 06:37 082 4 gusting 7 18.3
2014-Aug-21 06:22 100 5 gusting 9 17.8
2014-Aug-21 06:07 122 3 gusting 7 18.3
2014-Aug-21 05:52 167 1 gusting 6 17.8
2014-Aug-21 05:37 126 3 gusting 6 17.8
2014-Aug-21 05:22 129 2 gusting 6 18.3
2014-Aug-21 05:07 167 3 gusting 6 18.3
2014-Aug-21 04:52 139 3 gusting 7 18.3
2014-Aug-21 04:37 139 2 gusting 8 17.8
2014-Aug-21 04:22 145 3 gusting 7 17.8
2014-Aug-21 04:07 145 2 gusting 7 18.3
2014-Aug-21 03:52 140 5 gusting 7 18.9
2014-Aug-21 03:37 064 5 gusting 6 18.9
2014-Aug-21 03:22 030 2 gusting 7 19.4
2014-Aug-21 03:07 108 4 gusting 9 18.9
2014-Aug-21 02:52 117 5 gusting 7 18.3
2014-Aug-21 02:37 127 6 gusting 11 18.3
2014-Aug-21 02:22 117 5 gusting 11 18.3
2014-Aug-21 02:06 103 5 gusting 9 17.8
2014-Aug-21 01:51 098 3 gusting 7 17.2
2014-Aug-21 01:36 075 4 gusting 8 17.2
2014-Aug-21 01:21 043 6 gusting 11 17.2
2014-Aug-21 01:06 091 4 gusting 7 16.7
2014-Aug-21 00:51 040 1 gusting 5 16.1
2014-Aug-21 00:36 044 3 gusting 5 15.6
2014-Aug-21 00:21 106 1 gusting 4 13.9
2014-Aug-20 23:51 296 11.7
2014-Aug-20 23:36 297 10.6
2014-Aug-20 23:21 296 9.4
2014-Aug-20 23:06 297 8.3
2014-Aug-20 22:51 296 7.8
2014-Aug-20 22:36 297 1 gusting 2 6.7
2014-Aug-20 22:21 314 4.4
2014-Aug-20 22:06 314 3.3
2014-Aug-20 21:51 314 4.4
2014-Aug-20 21:36 315 0 gusting 1 4.4
2014-Aug-20 21:21 315 5.0
2014-Aug-20 21:05 314 5.6
2014-Aug-20 20:50 315 0 gusting 1 5.6
2014-Aug-20 20:35 314 5.0
2014-Aug-20 20:20 314 5.0
2014-Aug-20 20:05 314 5.6
2014-Aug-20 19:50 106 0 gusting 1 5.0
2014-Aug-20 19:35 105 5.0
2014-Aug-20 19:20 106 0 gusting 1 5.0
2014-Aug-20 19:05 106 0 gusting 1 5.0
2014-Aug-20 18:50 105 0 gusting 1 5.0
2014-Aug-20 18:35 105 5.0
2014-Aug-20 18:20 106 0 gusting 1 5.0
2014-Aug-20 18:05 106 5.0
2014-Aug-20 17:50 106 5.0
2014-Aug-20 17:35 105 0 gusting 1 5.6
2014-Aug-20 17:20 106 0 gusting 1 5.6
2014-Aug-20 17:05 106 0 gusting 1 5.0
2014-Aug-20 16:50 105 0 gusting 1 5.0
2014-Aug-20 16:35 112 0 gusting 1 5.0
2014-Aug-20 16:20 114 0 gusting 1 5.0
2014-Aug-20 16:05 114 5.0
2014-Aug-20 15:50 114 5.0
2014-Aug-20 15:35 115 1 gusting 1 5.0
2014-Aug-20 15:20 114 5.6
2014-Aug-20 15:05 114 1 gusting 2 6.1
2014-Aug-20 14:50 114 6.1
2014-Aug-20 14:35 115 6.1
2014-Aug-20 14:20 114 6.7
2014-Aug-20 14:05 114 7.2
2014-Aug-20 13:50 115 7.2
2014-Aug-20 13:35 114 7.2
2014-Aug-20 13:20 114 7.8
2014-Aug-20 13:05 114 8.9
2014-Aug-20 12:50 115 10.0
2014-Aug-20 12:35 115 0 gusting 1 10.0
2014-Aug-20 12:20 114 0 gusting 2 10.6
2014-Aug-20 12:05 111 0 gusting 3 10.6
2014-Aug-20 11:50 115 1 gusting 5 11.1
2014-Aug-20 11:35 125 2 gusting 7 11.1
2014-Aug-20 11:20 143 3 gusting 6 11.7
2014-Aug-20 11:05 126 4 gusting 8 11.7
2014-Aug-20 10:50 150 2 gusting 9 11.7
2014-Aug-20 10:35 151 2 gusting 6 12.2
2014-Aug-20 10:20 185 3 gusting 6 12.2
2014-Aug-20 10:05 186 2 gusting 5 11.7
2014-Aug-20 09:50 153 2 gusting 6 11.7
2014-Aug-20 09:35 204 1 gusting 6 12.2
2014-Aug-20 09:20 169 2 gusting 6 12.2
2014-Aug-20 09:05 228 2 gusting 6 12.2
2014-Aug-20 08:50 193 3 gusting 6 12.2
2014-Aug-20 08:35 160 3 gusting 6 12.8
2014-Aug-20 08:20 219 2 gusting 6 13.3
2014-Aug-20 08:05 187 3 gusting 8 13.9
2014-Aug-20 07:52 167 6 gusting 10 13.9
2014-Aug-20 07:35 190 6 gusting 11 14.4
2014-Aug-20 07:20 228 5 gusting 10 15.0
2014-Aug-20 07:05 128 4 gusting 9 15.6
2014-Aug-20 06:50 145 4 gusting 11 15.6
2014-Aug-20 06:35 136 4 gusting 9 15.6
2014-Aug-20 06:20 127 6 gusting 10 15.6
2014-Aug-20 06:05 142 5 gusting 10 15.0
2014-Aug-20 05:49 145 6 gusting 9 15.6
2014-Aug-20 05:34 176 6 gusting 9 15.6
2014-Aug-20 05:20 170 3 gusting 7 15.6
2014-Aug-20 05:04 120 3 gusting 7 16.1
2014-Aug-20 04:49 117 3 gusting 7 15.6
2014-Aug-20 04:34 132 3 gusting 7 15.6
2014-Aug-20 04:19 111 3 gusting 6 15.6
2014-Aug-20 04:04 210 2 gusting 6 15.0
2014-Aug-20 03:49 181 2 gusting 6 15.0
2014-Aug-20 03:34 115 3 14.4
2014-Aug-20 03:19 150 3 gusting 6 14.4
2014-Aug-20 03:04 222 4 gusting 9 14.4
2014-Aug-20 02:49 198 2 gusting 11 14.4
2014-Aug-20 02:34 153 3 gusting 7 14.4
2014-Aug-20 02:19 219 3 gusting 6 13.9
2014-Aug-20 02:04 231 5 gusting 8 13.9
2014-Aug-20 01:49 112 1 gusting 5 13.3
2014-Aug-20 01:34 162 2 gusting 6 13.9
2014-Aug-20 01:19 131 1 gusting 5 13.3
2014-Aug-20 01:04 195 2 gusting 6 12.8
2014-Aug-20 00:49 229 2 gusting 6 12.8
2014-Aug-20 00:34 120 0 gusting 4 12.2
2014-Aug-20 00:19 131 2 gusting 4 12.2
2014-Aug-20 00:04 176 1 gusting 5 11.7
2014-Aug-19 23:49 184 1 gusting 5 11.1
2014-Aug-19 23:34 170 0 gusting 2 10.0
2014-Aug-19 23:19 312 9.4
2014-Aug-19 23:03 312 8.3
2014-Aug-19 22:48 311 7.8
2014-Aug-19 22:33 311 6.7
2014-Aug-19 22:18 312 6.1
2014-Aug-19 22:03 312 5.6
2014-Aug-19 21:48 312 4.4
2014-Aug-19 21:33
2014-Aug-19 21:18
2014-Aug-19 21:03
2014-Aug-19 20:48
2014-Aug-19 20:33
2014-Aug-19 20:18
2014-Aug-19 20:03
2014-Aug-19 19:48
2014-Aug-19 19:32
2014-Aug-19 19:17
2014-Aug-19 19:02
2014-Aug-19 18:47
2014-Aug-19 18:32
2014-Aug-19 18:17 312 2.2
2014-Aug-19 18:02 288 1.7
2014-Aug-19 17:47 314 1.1
2014-Aug-19 17:32 314 0.6
2014-Aug-19 17:17 315 1.1
2014-Aug-19 17:02 314 1.7
2014-Aug-19 16:47 314 1.7
2014-Aug-19 16:32 314 2.2
2014-Aug-19 16:17 315 2.2
2014-Aug-19 16:02 314 2.2